Time;durP1;ratioP1;P1;durP2;ratioP2;P2;SDS_P1;SDS_P2;PMS_P1;PMS_P2;Temp;Humidity;BMP_temperature;BMP_pressure;BME280_temperature;BME280_humidity;BME280_pressure;Samples;Min_cycle;Max_cycle;Signal;HPM_P1;HPM_P2
2022/06/18 00:00:52;;;;;;;;;;;;;;;16.43;79.96;99642.99;1702592;84;21020;-67
2022/06/18 00:03:19;;;;;;;4.67;3.67;;;;;;;16.48;80.04;99639.13;1716336;82;21217;-68
2022/06/18 00:05:50;;;;;;;5.42;3.20;;;;;;;16.51;79.99;99646.75;1725154;82;21034;-67
2022/06/18 00:08:23;;;;;;;6.42;3.70;;;;;;;16.52;79.84;99640.05;1718983;82;21587;-68
2022/06/18 00:10:54;;;;;;;7.53;3.83;;;;;;;16.52;79.86;99636.45;1747407;81;21512;-67
2022/06/18 00:13:41;;;;;;;8.55;3.70;;;;;;;16.53;79.86;99633.91;1757767;81;20999;-68
2022/06/18 00:16:11;;;;;;;6.42;3.65;;;;;;;16.50;79.76;99628.47;1754160;81;21076;-67
2022/06/18 00:18:40;;;;;;;7.75;3.52;;;;;;;16.48;79.81;99634.17;1757789;81;21079;-66
2022/06/18 00:21:07;;;;;;;5.05;3.40;;;;;;;16.51;79.87;99636.23;1757972;81;21043;-67
2022/06/18 00:23:34;;;;;;;7.58;3.60;;;;;;;16.54;79.72;99633.55;1759464;81;21035;-67
2022/06/18 00:26:00;;;;;;;7.15;4.05;;;;;;;16.59;79.53;99628.88;1759967;81;21115;-67
2022/06/18 00:28:31;;;;;;;5.30;3.62;;;;;;;16.58;79.24;99626.66;1759945;81;21675;-67
2022/06/18 00:31:01;;;;;;;5.83;4.00;;;;;;;16.50;79.19;99624.30;1758377;81;21544;-67
2022/06/18 00:33:28;;;;;;;8.25;3.70;;;;;;;16.48;79.45;99625.23;1752532;81;21066;-66
2022/06/18 00:35:59;;;;;;;8.50;3.92;;;;;;;16.49;79.50;99628.83;1758149;81;21050;-66
2022/06/18 00:38:30;;;;;;;5.75;3.72;;;;;;;16.51;79.46;99627.29;1751408;81;21008;-67
2022/06/18 00:40:56;;;;;;;7.45;4.17;;;;;;;16.56;79.29;99630.41;1760045;81;21559;-66
2022/06/18 00:43:36;;;;;;;5.30;3.85;;;;;;;16.60;79.09;99634.67;1757997;81;21000;-67
2022/06/18 00:46:17;;;;;;;5.08;4.00;;;;;;;16.61;78.84;99627.94;1757131;81;22223;-67
2022/06/18 00:48:49;;;;;;;5.83;3.87;;;;;;;16.65;78.63;99639.37;1748366;81;21125;-68
2022/06/18 00:51:34;;;;;;;6.70;4.08;;;;;;;16.65;78.52;99636.59;1764585;81;20996;-67
2022/06/18 00:54:05;;;;;;;;;;;;;;;16.66;78.37;99626.28;1762324;81;23190;-67
2022/06/18 00:56:42;;;;;;;6.80;4.22;;;;;;;16.67;78.25;99620.92;1762888;81;20202;-66
2022/06/18 00:59:15;;;;;;;5.45;4.00;;;;;;;16.66;78.18;99627.67;1757178;81;21039;-67
2022/06/18 01:01:45;;;;;;;6.35;4.10;;;;;;;16.66;78.07;99628.48;1763364;81;21115;-68
2022/06/18 01:04:31;;;;;;;5.20;4.35;;;;;;;16.68;77.99;99622.56;1764840;81;21003;-66
2022/06/18 01:07:08;;;;;;;6.28;4.37;;;;;;;16.67;77.99;99622.31;1735969;81;21233;-67
2022/06/18 01:09:37;;;;;;;5.62;3.77;;;;;;;16.68;78.09;99619.78;1759153;81;21528;-67
2022/06/18 01:12:05;;;;;;;5.05;4.17;;;;;;;16.66;78.11;99624.31;1763790;79;21472;-67
2022/06/18 01:14:35;;;;;;;7.22;4.65;;;;;;;16.67;78.07;99626.48;1762648;81;21012;-66
2022/06/18 01:17:04;;;;;;;7.28;4.12;;;;;;;16.67;77.90;99619.53;1765483;81;22428;-67
2022/06/18 01:19:34;;;;;;;5.15;4.17;;;;;;;16.65;78.03;99615.72;1760890;81;21255;-67
2022/06/18 01:22:29;;;;;;;4.62;4.05;;;;;;;16.66;78.00;99612.37;1764196;81;21460;-67
2022/06/18 01:24:59;;;;;;;5.55;4.22;;;;;;;16.68;77.92;99610.05;1758085;81;21032;-67
2022/06/18 01:27:26;;;;;;;9.23;4.12;;;;;;;16.68;77.85;99617.00;1734020;81;21516;-66
2022/06/18 01:29:53;;;;;;;4.97;3.65;;;;;;;16.64;77.96;99611.34;1733721;81;21055;-67
2022/06/18 01:32:22;;;;;;;4.58;3.62;;;;;;;16.57;78.13;99615.33;1731272;81;21689;-68
2022/06/18 01:34:52;;;;;;;3.40;3.02;;;;;;;16.54;78.40;99614.08;1756960;81;21504;-67
2022/06/18 01:37:20;;;;;;;4.10;3.65;;;;;;;16.52;78.58;99614.20;1764241;81;21047;-67
2022/06/18 01:39:49;;;;;;;4.62;3.77;;;;;;;16.48;78.74;99609.94;1756721;81;21020;-68
2022/06/18 01:42:29;;;;;;;6.25;3.70;;;;;;;16.46;78.91;99609.52;1764115;80;21020;-68
2022/06/18 01:45:12;;;;;;;4.37;3.52;;;;;;;16.40;79.07;99604.78;1759972;81;22289;-66
2022/06/18 01:47:45;;;;;;;4.37;3.60;;;;;;;16.37;79.28;99604.69;1760507;81;20984;-67
2022/06/18 01:50:53;;;;;;;3.27;2.98;;;;;;;16.33;79.43;99601.00;1739170;81;21119;-68
2022/06/18 01:53:27;;;;;;;4.90;3.72;;;;;;;16.33;79.69;99601.00;1738394;82;21004;-67
2022/06/18 01:56:04;;;;;;;5.60;3.93;;;;;;;16.36;79.59;99594.75;1738424;81;21083;-66
2022/06/18 01:58:44;;;;;;;9.40;3.65;;;;;;;16.33;79.52;99599.61;1733129;82;21055;-68
2022/06/18 02:01:29;;;;;;;4.87;3.42;;;;;;;16.32;79.72;99602.17;1732453;82;21052;-65
2022/06/18 02:03:59;;;;;;;5.72;3.90;;;;;;;16.31;79.84;99597.19;1734676;82;21016;-67
2022/06/18 02:06:28;;;;;;;6.65;3.67;;;;;;;16.30;79.95;99595.01;1736098;81;21037;-66
2022/06/18 02:08:55;;;;;;;4.45;3.40;;;;;;;16.29;79.94;99597.55;1737775;81;20985;-67
2022/06/18 02:11:21;;;;;;;3.62;2.87;;;;;;;16.25;79.94;99590.29;1737686;82;21522;-67
2022/06/18 02:13:55;;;;;;;3.87;2.58;;;;;;;16.22;80.22;99597.95;1732291;82;21024;-67
2022/06/18 02:16:25;;;;;;;3.67;3.30;;;;;;;16.22;80.43;99591.83;1695219;81;21107;-67
2022/06/18 02:18:53;;;;;;;5.28;3.17;;;;;;;16.25;80.58;99592.49;1731791;82;21486;-66
2022/06/18 02:21:23;;;;;;;5.25;3.55;;;;;;;16.29;80.43;99591.20;1737862;82;20996;-67
2022/06/18 02:23:53;;;;;;;4.03;3.10;;;;;;;16.27;80.38;99591.56;1736366;82;21082;-68
2022/06/18 02:26:21;;;;;;;4.20;3.75;;;;;;;16.27;80.53;99595.73;1736638;82;21463;-67
2022/06/18 02:28:53;;;;;;;6.10;3.77;;;;;;;16.31;80.57;99595.80;1717594;82;21086;-67
2022/06/18 02:31:23;;;;;;;5.50;3.37;;;;;;;16.34;80.51;99592.90;1737666;82;20992;-67
2022/06/18 02:33:55;;;;;;;3.70;3.40;;;;;;;16.35;80.45;99591.16;1731105;82;21072;-66
2022/06/18 02:36:25;;;;;;;6.70;3.62;;;;;;;16.36;80.25;99594.14;1738320;82;21123;-67
2022/06/18 02:38:57;;;;;;;6.12;4.00;;;;;;;16.33;80.36;99599.61;1736289;82;21505;-66
2022/06/18 02:41:25;;;;;;;;;;;;;;;16.29;80.54;99601.72;1738679;82;21091;-66
2022/06/18 02:43:51;;;;;;;9.40;4.22;;;;;;;16.28;80.73;99600.69;1739089;82;20430;-67
2022/06/18 02:46:19;;;;;;;3.77;3.40;;;;;;;16.25;80.71;99603.61;1735734;82;21600;-67
2022/06/18 02:48:46;;;;;;;9.13;4.15;;;;;;;16.19;80.90;99605.02;1735786;82;21162;-68
2022/06/18 02:51:16;;;;;;;4.60;4.10;;;;;;;16.18;81.10;99613.14;1757711;81;21039;-67
2022/06/18 02:53:44;;;;;;;4.95;3.72;;;;;;;16.18;81.30;99615.92;1759680;81;20996;-67
2022/06/18 02:56:13;;;;;;;7.40;3.98;;;;;;;16.17;81.51;99608.16;1751628;81;21052;-68
2022/06/18 02:58:44;;;;;;;5.60;4.35;;;;;;;16.21;81.58;99616.59;1758232;81;21019;-67
2022/06/18 03:01:21;;;;;;;4.80;4.20;;;;;;;16.21;81.52;99612.42;1750147;81;21773;-67
2022/06/18 03:03:52;;;;;;;6.67;5.42;;;;;;;16.16;81.71;99618.24;1758935;81;21116;-67
2022/06/18 03:06:24;;;;;;;9.03;5.42;;;;;;;16.14;81.93;99613.61;1758041;81;21040;-67
2022/06/18 03:08:53;;;;;;;9.50;5.80;;;;;;;16.11;82.40;99612.94;1751456;81;21655;-66
2022/06/18 03:14:09;;;;;;;7.97;5.37;;;;;;;16.05;82.86;99617.37;1758008;81;21188;-68
2022/06/18 03:16:36;;;;;;;8.00;5.53;;;;;;;16.08;83.14;99616.44;1757936;81;21031;-69
2022/06/18 03:19:06;;;;;;;17.95;6.10;;;;;;;16.11;83.26;99619.89;1758614;80;21071;-68
2022/06/18 03:21:41;;;;;;;10.68;6.15;;;;;;;16.13;83.30;99621.16;1751751;81;21600;-66
2022/06/18 03:24:09;;;;;;;13.38;5.75;;;;;;;16.13;83.15;99624.52;1758704;81;21322;-68
2022/06/18 03:26:37;;;;;;;14.13;6.03;;;;;;;16.09;83.58;99622.23;1759637;81;21584;-68
2022/06/18 03:29:06;;;;;;;11.53;7.03;;;;;;;16.14;83.78;99623.34;1758897;81;20996;-68
2022/06/18 03:31:34;;;;;;;11.12;7.17;;;;;;;16.13;83.68;99625.91;1751035;81;21063;-68
2022/06/18 03:34:03;;;;;;;7.28;6.05;;;;;;;16.15;83.83;99626.37;1727848;81;21033;-67
2022/06/18 03:36:32;;;;;;;8.78;6.78;;;;;;;16.15;84.00;99632.74;1729783;81;21059;-67
2022/06/18 03:38:58;;;;;;;8.00;7.15;;;;;;;16.18;83.99;99626.47;1759723;81;21340;-67
2022/06/18 03:41:28;;;;;;;9.83;8.03;;;;;;;16.17;83.86;99625.44;1757749;81;21019;-67
2022/06/18 03:43:56;;;;;;;11.95;8.30;;;;;;;16.15;84.13;99620.23;1751360;81;20991;-68
2022/06/18 03:46:27;;;;;;;9.68;8.03;;;;;;;16.16;84.44;99628.79;1758110;81;20992;-66
2022/06/18 03:48:59;;;;;;;10.30;8.60;;;;;;;16.20;84.40;99630.84;1752232;81;21099;-66
2022/06/18 03:51:29;;;;;;;10.30;9.18;;;;;;;16.19;84.29;99631.42;1757817;81;21267;-66
2022/06/18 03:53:55;;;;;;;11.03;9.23;;;;;;;16.16;84.38;99626.01;1758582;81;20996;-66
2022/06/18 03:56:28;;;;;;;14.78;9.75;;;;;;;16.14;84.30;99631.11;1759140;81;21062;-66
2022/06/18 03:58:56;;;;;;;12.10;9.03;;;;;;;16.02;84.11;99627.81;1752046;81;21071;-66
2022/06/18 04:01:27;;;;;;;13.30;9.30;;;;;;;15.98;84.75;99621.33;1730643;81;21017;-67
2022/06/18 04:03:54;;;;;;;11.95;9.10;;;;;;;16.03;85.00;99627.23;1752016;81;21252;-66
2022/06/18 04:06:25;;;;;;;11.38;9.80;;;;;;;16.02;85.04;99622.25;1758842;81;20984;-67
2022/06/18 04:08:51;;;;;;;10.60;8.90;;;;;;;16.09;85.43;99620.85;1759114;81;21003;-67
2022/06/18 04:11:20;;;;;;;10.60;9.23;;;;;;;16.15;85.36;99619.42;1758140;81;21592;-68
2022/06/18 04:13:47;;;;;;;11.60;9.30;;;;;;;16.20;85.22;99624.72;1758447;81;21504;-68
2022/06/18 04:16:33;;;;;;;9.55;8.63;;;;;;;16.26;85.33;99625.25;1750228;81;21549;-67
2022/06/18 04:19:02;;;;;;;11.03;8.98;;;;;;;16.35;85.70;99625.91;1753553;81;21511;-67
2022/06/18 04:21:30;;;;;;;9.88;8.85;;;;;;;16.46;85.33;99630.94;1754772;81;21460;-67
2022/06/18 04:23:58;;;;;;;13.58;9.48;;;;;;;16.40;84.16;99626.22;1749876;81;21016;-68
2022/06/18 04:26:25;;;;;;;12.40;9.58;;;;;;;16.30;84.10;99633.93;1752562;81;21552;-66
2022/06/18 04:28:52;;;;;;;12.50;10.63;;;;;;;16.29;84.58;99632.90;1754076;81;21749;-66
2022/06/18 04:31:20;;;;;;;12.05;9.38;;;;;;;16.34;84.90;99635.98;1748476;81;21606;-67
2022/06/18 04:33:48;;;;;;;17.00;9.93;;;;;;;16.42;84.72;99640.00;1753393;81;20997;-67
2022/06/18 04:36:37;;;;;;;13.53;9.50;;;;;;;16.48;84.51;99628.61;1749796;81;21094;-68
2022/06/18 04:39:05;;;;;;;11.93;9.60;;;;;;;16.50;84.02;99631.25;1736474;81;21153;-68
2022/06/18 04:41:37;;;;;;;10.13;9.13;;;;;;;16.48;83.76;99636.35;1733408;81;21614;-67
2022/06/18 04:44:05;;;;;;;10.88;9.35;;;;;;;16.45;83.62;99637.07;1739449;81;21156;-67
2022/06/18 04:46:33;;;;;;;13.03;9.70;;;;;;;16.46;83.61;99640.09;1740172;81;21106;-67
2022/06/18 04:49:00;;;;;;;15.53;11.30;;;;;;;16.50;83.54;99635.42;1701258;83;21073;-67
2022/06/18 04:51:27;;;;;;;11.95;10.25;;;;;;;16.51;83.31;99641.20;1697846;83;21064;-67
2022/06/18 04:53:55;;;;;;;13.28;10.88;;;;;;;16.49;83.58;99640.77;1701109;83;21024;-68
2022/06/18 04:56:22;;;;;;;16.05;11.28;;;;;;;16.55;83.71;99640.72;1698609;83;21056;-68
2022/06/18 04:58:49;;;;;;;11.38;10.10;;;;;;;16.65;83.68;99647.71;1702295;83;21049;-70
2022/06/18 05:01:19;;;;;;;13.72;10.68;;;;;;;16.70;83.44;99644.45;1737764;81;21118;-67
2022/06/18 05:03:53;;;;;;;13.22;9.78;;;;;;;16.77;83.53;99650.98;1737222;81;21039;-67
2022/06/18 05:06:28;;;;;;;14.30;9.60;;;;;;;16.88;83.32;99652.66;1690696;81;21750;-68
2022/06/18 05:09:08;;;;;;;11.38;10.15;;;;;;;16.98;82.86;99660.22;1667521;84;21043;-69
2022/06/18 05:11:46;;;;;;;10.80;9.78;;;;;;;17.06;82.78;99665.39;1650921;82;21070;-69
2022/06/18 05:14:21;;;;;;;12.63;10.40;;;;;;;17.18;83.09;99672.25;1690358;81;21026;-70
2022/06/18 05:17:06;;;;;;;15.23;10.68;;;;;;;17.23;82.86;99667.80;1736222;81;21077;-66
2022/06/18 05:19:36;;;;;;;15.20;10.60;;;;;;;17.38;82.78;99664.75;1737994;81;21276;-69
2022/06/18 05:22:04;;;;;;;13.95;10.93;;;;;;;17.45;82.01;99668.89;1739002;81;21091;-69
2022/06/18 05:24:32;;;;;;;15.93;11.30;;;;;;;17.43;81.54;99671.23;1739206;81;21111;-67
2022/06/18 05:27:00;;;;;;;13.48;10.85;;;;;;;17.44;81.50;99677.01;1706128;81;21016;-68
2022/06/18 05:29:26;;;;;;;13.55;10.88;;;;;;;17.46;80.99;99675.48;1706785;81;21012;-69
2022/06/18 05:31:55;;;;;;;16.40;10.55;;;;;;;17.49;80.79;99679.52;1738522;81;21757;-68
2022/06/18 05:34:24;;;;;;;12.80;10.15;;;;;;;17.44;80.72;99680.61;1737624;81;21529;-67
2022/06/18 05:36:54;;;;;;;11.40;10.08;;;;;;;17.38;80.74;99681.46;1738652;81;21614;-67
2022/06/18 05:39:21;;;;;;;13.70;10.43;;;;;;;17.40;80.90;99685.28;1735525;81;21046;-69
2022/06/18 05:41:48;;;;;;;12.33;10.32;;;;;;;17.35;80.90;99685.58;1737063;81;21058;-69
2022/06/18 05:44:15;;;;;;;11.78;10.25;;;;;;;17.32;81.45;99683.50;1737709;81;21201;-68
2022/06/18 05:46:41;;;;;;;13.13;10.98;;;;;;;17.37;81.94;99687.39;1737777;81;21610;-67
2022/06/18 05:49:13;;;;;;;13.68;10.80;;;;;;;17.46;81.92;99689.41;1737312;81;21318;-68
2022/06/18 05:51:41;;;;;;;13.15;10.63;;;;;;;17.58;82.08;99690.45;1736228;81;21146;-66
2022/06/18 05:54:08;;;;;;;14.33;10.93;;;;;;;17.70;81.27;99690.91;1737551;81;21134;-69
2022/06/18 05:56:56;;;;;;;14.70;11.20;;;;;;;17.68;80.59;99690.46;1612308;87;21322;-67
2022/06/18 05:59:27;;;;;;;15.38;11.60;;;;;;;17.76;80.67;99701.41;1609539;87;21114;-68
2022/06/18 06:01:56;;;;;;;13.28;10.30;;;;;;;17.74;80.74;99700.17;1657613;81;21046;-68
2022/06/18 06:04:27;;;;;;;14.10;9.13;;;;;;;17.88;81.45;99693.49;1737239;81;21043;-67
2022/06/18 06:06:54;;;;;;;11.85;9.75;;;;;;;18.06;80.99;99692.25;1738132;81;21075;-66
2022/06/18 06:12:10;;;;;;;14.07;9.40;;;;;;;18.32;79.96;99686.01;1735714;81;21036;-68
2022/06/18 06:14:39;;;;;;;9.98;7.80;;;;;;;18.48;79.16;99688.71;1735131;81;21088;-66
2022/06/18 06:17:10;;;;;;;10.85;8.63;;;;;;;18.52;78.70;99687.38;1704033;81;21103;-67
2022/06/18 06:19:36;;;;;;;12.30;9.53;;;;;;;18.58;76.81;99687.29;1736391;81;20984;-66
2022/06/18 06:22:03;;;;;;;10.18;8.83;;;;;;;18.66;77.54;99693.82;1729733;81;21113;-69
2022/06/18 06:24:34;;;;;;;10.82;7.78;;;;;;;18.76;77.79;99689.59;1757161;81;21527;-68
2022/06/18 06:27:00;;;;;;;10.08;7.85;;;;;;;18.89;77.28;99693.58;1751987;81;21094;-68
2022/06/18 06:29:28;;;;;;;8.98;7.60;;;;;;;18.94;76.50;99696.87;1757454;81;21055;-68
2022/06/18 06:31:56;;;;;;;15.03;8.68;;;;;;;19.00;76.51;99692.38;1759392;81;21071;-67
2022/06/18 06:34:28;;;;;;;10.68;9.58;;;;;;;19.11;76.22;99698.17;1760255;81;21084;-66
2022/06/18 06:36:59;;;;;;;12.13;8.70;;;;;;;19.27;76.00;99695.21;1721992;82;21048;-66
2022/06/18 06:39:25;;;;;;;8.43;7.62;;;;;;;19.39;75.81;99697.80;1750123;81;21094;-67
2022/06/18 06:41:51;;;;;;;10.10;8.55;;;;;;;19.48;74.28;99693.92;1743841;81;21210;-68
2022/06/18 06:44:18;;;;;;;9.95;7.30;;;;;;;19.56;74.88;99700.64;1759247;81;21043;-67
2022/06/18 06:46:46;;;;;;;10.72;8.00;;;;;;;19.73;75.29;99692.88;1745986;81;21137;-67
2022/06/18 06:49:14;;;;;;;11.40;8.33;;;;;;;19.90;74.90;99699.89;1751451;81;21066;-68
2022/06/18 06:51:41;;;;;;;11.63;8.18;;;;;;;20.09;74.64;99698.14;1747887;81;21592;-69
2022/06/18 06:54:08;;;;;;;9.83;8.78;;;;;;;20.19;71.71;99704.46;1758325;81;21004;-68
2022/06/18 06:59:20;;;;;;;11.28;9.15;;;;;;;19.97;70.97;99699.75;1742961;81;21097;-70
2022/06/18 07:01:48;;;;;;;12.23;8.88;;;;;;;19.90;71.63;99706.88;1747630;81;20996;-69
2022/06/18 07:04:15;;;;;;;9.03;7.00;;;;;;;19.99;72.14;99707.17;1748486;81;21076;-67
2022/06/18 07:06:43;;;;;;;9.43;7.22;;;;;;;20.05;70.43;99709.28;1750864;81;21012;-69
2022/06/18 07:09:10;;;;;;;8.30;7.33;;;;;;;19.87;69.78;99700.66;1755761;81;21112;-67
2022/06/18 07:11:38;;;;;;;11.43;8.05;;;;;;;19.77;70.74;99704.11;1759380;81;21547;-69
2022/06/18 07:14:06;;;;;;;9.05;7.95;;;;;;;19.79;71.17;99705.94;1755043;81;21611;-69
2022/06/18 07:16:33;;;;;;;13.18;8.15;;;;;;;19.74;71.05;99702.86;1759835;81;20988;-68
2022/06/18 07:19:00;;;;;;;10.08;6.58;;;;;;;19.72;70.91;99708.62;1759238;81;21515;-68
2022/06/18 07:21:33;;;;;;;10.10;6.45;;;;;;;19.64;70.64;99709.92;1757415;81;21005;-67
2022/06/18 07:23:56;;;;;;;7.35;6.40;;;;;;;19.50;70.13;99713.91;1758454;81;21147;-69
2022/06/18 07:26:24;;;;;;;10.85;7.42;;;;;;;19.44;70.34;99713.42;1758946;81;21000;-68
2022/06/18 07:28:50;;;;;;;9.88;6.78;;;;;;;19.37;70.31;99716.10;1745060;81;21527;-66
2022/06/18 07:31:29;;;;;;;7.83;5.92;;;;;;;19.34;70.61;99720.47;1735624;81;21107;-67
2022/06/18 07:33:57;;;;;;;13.48;6.45;;;;;;;19.21;69.42;99727.64;1730428;81;21650;-67
2022/06/18 07:36:26;;;;;;;9.23;7.10;;;;;;;19.12;70.25;99722.11;1759391;81;21291;-68
2022/06/18 07:38:57;;;;;;;14.33;8.10;;;;;;;19.14;70.97;99728.13;1747476;81;21041;-67
2022/06/18 07:41:32;;;;;;;9.73;7.35;;;;;;;19.23;71.60;99725.88;1751825;81;21044;-68
2022/06/18 07:43:59;;;;;;;12.30;8.20;;;;;;;19.21;71.09;99724.85;1759809;81;21303;-69
2022/06/18 07:46:26;;;;;;;14.03;7.33;;;;;;;19.21;71.23;99729.63;1758923;81;21047;-68
2022/06/18 07:48:52;;;;;;;10.78;6.58;;;;;;;19.24;71.22;99726.11;1743376;81;22263;-66
2022/06/18 07:51:19;;;;;;;7.78;5.95;;;;;;;19.34;71.61;99731.03;1739497;81;21066;-66
2022/06/18 07:53:48;;;;;;;7.60;6.10;;;;;;;19.40;70.92;99720.93;1745613;81;21087;-69
2022/06/18 07:56:16;;;;;;;10.20;7.35;;;;;;;19.48;70.57;99720.47;1739579;81;21473;-64
2022/06/18 07:58:43;;;;;;;10.20;7.05;;;;;;;19.55;70.51;99718.57;1749897;81;21012;-67
2022/06/18 08:01:13;;;;;;;6.50;5.78;;;;;;;19.64;70.34;99721.67;1758530;81;21027;-69
2022/06/18 08:03:46;;;;;;;10.58;6.90;;;;;;;19.70;70.42;99725.16;1750510;81;20989;-68
2022/06/18 08:06:14;;;;;;;9.33;6.35;;;;;;;19.69;70.23;99720.77;1752830;81;21048;-69
2022/06/18 08:08:43;;;;;;;7.72;6.50;;;;;;;19.75;70.72;99723.23;1737251;81;21043;-68
2022/06/18 08:11:15;;;;;;;7.35;5.53;;;;;;;19.78;70.33;99722.48;1758732;81;21082;-68
2022/06/18 08:13:41;;;;;;;9.70;5.65;;;;;;;19.95;71.50;99726.70;1759951;81;21131;-68
2022/06/18 08:16:13;;;;;;;7.17;6.45;;;;;;;20.15;69.85;99722.36;1759089;81;20993;-69
2022/06/18 08:18:43;;;;;;;6.50;4.80;;;;;;;20.32;69.51;99729.36;1757200;81;21529;-67
2022/06/18 08:21:33;;;;;;;9.33;4.83;;;;;;;20.45;68.15;99725.72;1759213;81;21512;-68
2022/06/18 08:24:09;;;;;;;7.83;4.85;;;;;;;20.54;67.49;99727.61;1758715;81;21086;-67
2022/06/18 08:26:37;;;;;;;7.15;4.58;;;;;;;20.57;65.66;99733.05;1759569;81;21740;-68
2022/06/18 08:29:10;;;;;;;6.70;4.83;;;;;;;20.50;65.84;99728.18;1750691;81;21044;-69
2022/06/18 08:31:36;;;;;;;5.42;3.70;;;;;;;20.51;65.06;99724.77;1760355;81;21075;-67
2022/06/18 08:34:04;;;;;;;3.45;3.15;;;;;;;20.58;65.24;99725.44;1759384;81;21549;-68
2022/06/18 08:36:31;;;;;;;4.92;3.15;;;;;;;20.71;65.33;99721.78;1758121;81;21059;-67
2022/06/18 08:38:58;;;;;;;4.42;2.92;;;;;;;20.87;64.63;99725.13;1693991;81;21501;-67
2022/06/18 08:41:49;;;;;;;5.20;2.70;;;;;;;21.02;64.46;99714.07;1749950;81;21023;-68
2022/06/18 08:44:21;;;;;;;7.72;3.00;;;;;;;21.20;64.40;99714.82;1757112;81;21060;-69
2022/06/18 08:47:05;;;;;;;3.02;2.33;;;;;;;21.34;63.06;99707.91;1752625;81;21048;-68
2022/06/18 08:49:41;;;;;;;3.42;2.52;;;;;;;21.40;59.72;99711.97;1753099;81;21051;-68
2022/06/18 08:52:51;;;;;;;6.03;2.87;;;;;;;21.38;57.85;99703.73;1707108;81;22252;-68
2022/06/18 08:56:08;;;;;;;3.45;2.52;;;;;;;21.31;58.97;99707.30;1758380;80;21504;-67
2022/06/18 08:59:19;;;;;;;5.58;2.92;;;;;;;21.40;59.77;99700.77;1756061;81;20996;-70
2022/06/18 09:01:52;;;;;;;11.55;3.35;;;;;;;21.70;59.97;99706.55;1742402;81;21020;-69
2022/06/18 09:04:57;;;;;;;7.97;3.50;;;;;;;21.75;59.36;99705.55;1758916;81;22342;-68
2022/06/18 09:07:38;;;;;;;4.20;2.58;;;;;;;21.71;59.07;99718.77;1758891;81;21288;-69
2022/06/18 09:10:16;;;;;;;3.55;2.50;;;;;;;21.56;56.79;99716.48;1737517;81;21048;-70
2022/06/18 09:12:53;;;;;;;4.65;2.27;;;;;;;21.43;55.99;99717.38;1757586;81;21043;-68
2022/06/18 09:15:28;;;;;;;6.50;2.20;;;;;;;21.43;57.43;99713.80;1759293;81;21642;-69
2022/06/18 09:18:20;;;;;;;5.55;2.22;;;;;;;21.65;58.17;99718.91;1747144;81;21004;-67
2022/06/18 09:20:54;;;;;;;8.23;2.10;;;;;;;21.89;55.84;99726.48;1749752;81;21788;-68
2022/06/18 09:23:34;;;;;;;11.43;2.42;;;;;;;21.97;55.49;99718.30;1759288;81;21063;-69
2022/06/18 09:26:01;;;;;;;7.05;2.77;;;;;;;21.98;54.79;99704.50;1758977;81;21032;-68
2022/06/18 09:28:32;;;;;;;7.78;3.50;;;;;;;22.10;57.49;99713.16;1751107;81;21027;-66
2022/06/18 09:31:16;;;;;;;6.00;2.58;;;;;;;22.22;58.49;99718.20;1759777;81;21055;-67
2022/06/18 09:33:47;;;;;;;5.60;2.20;;;;;;;22.28;57.62;99712.40;1758935;81;21179;-66
2022/06/18 09:36:21;;;;;;;6.85;1.90;;;;;;;22.40;57.67;99716.06;1760018;81;21004;-68
2022/06/18 09:39:01;;;;;;;5.75;2.08;;;;;;;22.48;55.40;99713.47;1751604;81;21075;-67
2022/06/18 09:41:32;;;;;;;3.70;2.00;;;;;;;22.52;54.80;99707.87;1752165;81;21083;-67
2022/06/18 09:44:17;;;;;;;3.52;1.55;;;;;;;22.48;54.08;99708.64;1759731;81;21058;-68
2022/06/18 09:47:00;;;;;;;5.75;1.82;;;;;;;22.53;54.13;99708.06;1758248;81;21651;-67
2022/06/18 09:49:28;;;;;;;3.30;1.70;;;;;;;22.64;52.82;99711.71;1759886;81;21496;-68
2022/06/18 09:52:06;;;;;;;4.87;1.70;;;;;;;22.63;52.12;99712.11;1759148;81;21103;-67
2022/06/18 09:54:37;;;;;;;9.43;2.02;;;;;;;22.54;51.97;99714.67;1755416;81;21516;-68
2022/06/18 09:57:04;;;;;;;10.00;3.02;;;;;;;22.44;53.54;99722.47;1745236;81;21043;-68
2022/06/18 09:59:43;;;;;;;10.60;2.65;;;;;;;22.12;57.49;99733.21;1740084;82;21090;-67
2022/06/18 10:02:23;;;;;;;6.42;3.40;;;;;;;21.61;60.00;99720.91;1696925;82;21079;-68
2022/06/18 10:07:40;;;;;;;8.28;3.35;;;;;;;20.77;64.27;99723.03;1736082;82;21028;-66
2022/06/18 10:10:20;;;;;;;7.87;2.70;;;;;;;20.56;66.04;99720.22;1733368;81;21087;-67
2022/06/18 10:12:50;;;;;;;3.42;2.80;;;;;;;20.53;67.28;99718.20;1734145;81;21123;-65
2022/06/18 10:15:18;;;;;;;4.55;2.90;;;;;;;20.57;68.08;99715.44;1735694;81;21071;-67
2022/06/18 10:18:10;;;;;;;10.10;2.83;;;;;;;20.63;68.61;99720.89;1739310;81;21043;-67
2022/06/18 10:20:44;;;;;;;5.22;2.87;;;;;;;20.72;69.36;99718.59;1738700;81;21001;-65
2022/06/18 10:23:38;;;;;;;4.22;2.77;;;;;;;20.90;69.59;99713.73;1728768;82;21084;-65
2022/06/18 10:26:33;;;;;;;5.17;2.45;;;;;;;21.19;70.48;99706.22;1693093;83;21244;-67
2022/06/18 10:29:28;;;;;;;3.27;2.25;;;;;;;21.50;68.67;99706.22;1725190;82;21024;-68
2022/06/18 10:32:15;;;;;;;6.87;3.15;;;;;;;21.76;66.84;99701.57;1691937;84;21230;-65
2022/06/18 10:35:21;;;;;;;3.27;2.55;;;;;;;21.96;66.32;99716.70;1691449;83;21119;-68
2022/06/18 10:38:26;;;;;;;5.92;3.00;;;;;;;22.11;64.49;99709.14;1692731;83;21085;-68
2022/06/18 10:41:32;;;;;;;3.77;2.25;;;;;;;22.09;61.14;99712.94;1677466;84;21112;-67
2022/06/18 10:44:20;;;;;;;5.53;2.80;;;;;;;22.00;60.68;99718.13;1726716;82;21060;-66
2022/06/18 10:47:07;;;;;;;5.60;2.50;;;;;;;21.72;59.01;99718.14;1729833;82;21025;-67
2022/06/18 10:49:34;;;;;;;3.42;2.30;;;;;;;21.55;58.47;99719.64;1691065;83;21067;-67
2022/06/18 10:52:02;;;;;;;7.92;2.60;;;;;;;21.38;59.31;99717.74;1693196;83;21131;-67
2022/06/18 10:54:36;;;;;;;4.25;2.70;;;;;;;21.27;60.15;99719.09;1668920;84;21513;-67
2022/06/18 10:57:04;;;;;;;4.42;2.45;;;;;;;21.21;61.64;99713.03;1698753;82;28360;-67
2022/06/18 10:59:39;;;;;;;3.67;2.17;;;;;;;21.20;62.13;99709.22;1730131;82;21056;-66
2022/06/18 11:02:18;;;;;;;4.12;2.08;;;;;;;21.24;62.73;99711.47;1687873;83;21044;-66
2022/06/18 11:05:00;;;;;;;7.70;2.22;;;;;;;21.30;63.26;99709.89;1693731;83;21095;-68
2022/06/18 11:07:28;;;;;;;4.22;2.80;;;;;;;21.33;62.97;99713.31;1687742;83;21168;-68
2022/06/18 11:10:07;;;;;;;6.65;2.50;;;;;;;21.29;63.02;99706.87;1700362;83;21085;-66
2022/06/18 11:12:38;;;;;;;4.20;2.00;;;;;;;21.26;61.31;99711.86;1729307;81;21021;-67
2022/06/18 11:15:24;;;;;;;4.60;2.30;;;;;;;21.27;60.80;99710.68;1723994;81;21086;-68
2022/06/18 11:17:54;;;;;;;3.90;2.27;;;;;;;21.32;61.23;99710.91;1663824;85;21596;-67
2022/06/18 11:20:24;;;;;;;4.17;2.45;;;;;;;21.43;62.83;99709.59;1730221;82;21628;-67
2022/06/18 11:22:59;;;;;;;6.67;2.37;;;;;;;21.54;63.19;99710.45;1727546;82;21072;-67
2022/06/18 11:25:41;;;;;;;3.65;2.77;;;;;;;21.63;62.63;99710.89;1727024;82;21052;-67
2022/06/18 11:28:28;;;;;;;4.85;2.50;;;;;;;21.73;61.76;99711.36;1732205;82;21570;-68
2022/06/18 11:30:57;;;;;;;3.27;2.35;;;;;;;21.80;60.32;99714.83;1727918;82;21080;-67
2022/06/18 11:33:32;;;;;;;3.62;2.08;;;;;;;21.73;59.19;99712.77;1729441;82;21090;-68
2022/06/18 11:36:09;;;;;;;2.60;1.65;;;;;;;21.69;59.89;99712.73;1725292;82;21083;-67
2022/06/18 11:38:36;;;;;;;4.55;1.92;;;;;;;21.75;61.09;99713.97;1726789;82;21068;-67
2022/06/18 11:41:23;;;;;;;5.30;1.65;;;;;;;21.94;59.40;99708.49;1730961;82;21051;-67
2022/06/18 11:44:19;;;;;;;6.08;1.98;;;;;;;22.13;56.99;99704.54;1729535;82;21048;-68
2022/06/18 11:47:26;;;;;;;3.42;1.67;;;;;;;22.35;55.55;99706.81;1728957;82;21261;-66
2022/06/18 11:50:24;;;;;;;1.82;1.52;;;;;;;22.64;53.31;99699.08;1727832;82;21321;-65
2022/06/18 11:52:56;;;;;;;3.33;1.82;;;;;;;22.82;53.45;99700.52;1726456;82;21528;-67
2022/06/18 11:55:32;;;;;;;3.77;2.25;;;;;;;22.99;53.06;99706.54;1728921;82;21000;-68
2022/06/18 11:58:27;;;;;;;10.63;2.02;;;;;;;23.00;52.93;99703.92;1746124;81;21064;-68
2022/06/18 12:01:28;;;;;;;3.58;1.72;;;;;;;23.04;53.95;99702.52;1750341;81;21092;-67
2022/06/18 12:04:06;;;;;;;4.10;1.72;;;;;;;23.07;53.45;99701.70;1750304;81;21045;-67
2022/06/18 12:07:06;;;;;;;3.72;1.85;;;;;;;23.12;53.17;99691.47;1743893;81;21061;-67
2022/06/18 12:09:32;;;;;;;2.83;1.82;;;;;;;23.16;52.99;99697.09;1743615;81;21475;-67
2022/06/18 12:12:11;;;;;;;3.92;2.02;;;;;;;23.24;53.17;99700.09;1705823;83;21494;-68